createdAt,value
2019-05-03T09:44:24.677Z,86.2898
2019-05-03T09:45:26.867Z,87.2511
2019-05-03T09:46:29.043Z,84.6326
2019-05-03T09:47:31.355Z,83.5019
2019-05-03T09:54:58.532Z,82.8977
2019-05-03T09:56:04.884Z,82.7634
2019-05-03T09:57:10.096Z,84.8798
2019-05-03T09:58:15.330Z,82.0325
2019-05-03T09:59:17.668Z,83.2776
2019-05-03T10:00:20.907Z,84.4999
2019-05-03T10:01:25.462Z,86.0151
2019-05-03T10:02:28.494Z,85.9602
2019-05-03T10:03:31.463Z,87.1672
2019-05-03T10:04:33.702Z,84.6037
2019-05-03T10:05:38.089Z,87.0680
2019-05-03T10:06:41.162Z,87.0527
2019-05-03T10:10:07.346Z,82.6368
2019-05-03T10:11:11.677Z,83.6927
2019-05-03T10:12:16.190Z,81.9547
2019-05-03T10:13:23.618Z,81.7121
2019-05-03T10:14:28.205Z,81.8814
2019-05-03T10:15:30.361Z,81.0071
2019-05-03T10:16:31.554Z,83.0014
2019-05-03T10:17:35.161Z,82.5635
2019-05-03T10:18:37.505Z,84.1917
2019-05-03T10:19:40.608Z,83.8956
2019-05-03T10:20:44.701Z,83.4470
2019-05-03T10:21:48.216Z,80.0488
2019-05-03T10:22:50.489Z,82.2797
2019-05-03T10:23:54.812Z,79.4080
2019-05-03T10:25:01.791Z,79.8840
2019-05-03T10:26:06.649Z,80.5158
2019-05-03T10:27:09.491Z,81.5793
2019-05-03T10:28:11.766Z,84.4755
2019-05-03T10:29:15.127Z,83.0488
2019-05-03T10:30:17.467Z,79.7070
2019-05-03T10:31:19.930Z,80.2335
2019-05-03T10:32:26.846Z,77.6822
2019-05-03T10:33:31.469Z,77.6333
2019-05-03T10:34:35.327Z,75.3338
2019-05-03T10:35:38.616Z,78.9456
2019-05-03T10:36:40.801Z,82.2873
2019-05-03T10:37:45.315Z,77.7020
2019-05-03T10:38:50.554Z,76.0159
2019-05-03T10:39:52.991Z,76.5743
2019-05-03T10:40:55.257Z,77.0733
2019-05-03T10:41:59.694Z,77.7295
2019-05-03T10:43:04.717Z,76.6033
2019-05-03T10:44:08.648Z,75.9762
2019-05-03T10:45:15.272Z,75.1553
2019-05-03T10:46:17.586Z,74.5815
2019-05-03T10:47:19.814Z,76.1669
2019-05-03T10:48:21.982Z,76.8444
2019-05-03T10:49:24.584Z,78.0209
2019-05-03T10:50:26.814Z,81.3901
2019-05-03T10:51:29.538Z,82.1881
2019-05-03T10:52:31.746Z,78.0346
2019-05-03T10:53:34.614Z,80.1678
2019-05-03T10:54:36.978Z,77.8790
2019-05-03T10:55:41.739Z,80.6256
2019-05-03T10:56:45.250Z,81.1704
2019-05-03T10:57:47.605Z,81.9684
2019-05-03T10:58:49.777Z,82.8061
2019-05-03T10:59:51.932Z,80.8789
2019-05-03T11:00:56.552Z,82.0630
2019-05-03T11:02:00.147Z,84.2008
2019-05-03T11:03:02.344Z,84.0726
2019-05-03T11:04:05.320Z,85.1392
2019-05-03T11:05:07.819Z,84.7700
2019-05-03T11:06:10.566Z,85.4246
2019-05-03T11:07:14.784Z,85.6626
2019-05-03T11:08:17.123Z,87.9362
2019-05-03T11:09:19.275Z,86.1341
2019-05-03T11:10:21.445Z,87.2190
2019-05-03T11:11:25.748Z,87.3594
2019-05-03T11:12:29.209Z,87.5059
2019-05-03T11:13:31.423Z,87.6707
2019-05-03T11:14:34.867Z,86.7277
2019-05-03T11:15:37.356Z,86.0777
2019-05-03T11:16:39.520Z,87.7577
2019-05-03T11:17:41.690Z,86.6499
2019-05-03T11:18:45.564Z,85.0706
